createdAt,value
2023-03-24T00:01:42.729Z,1.80
2023-03-24T00:04:19.212Z,2.10
2023-03-24T00:06:49.499Z,1.90
2023-03-24T00:09:37.503Z,1.63
2023-03-24T00:12:13.193Z,1.80
2023-03-24T00:14:42.573Z,1.80
2023-03-24T00:17:19.172Z,1.90
2023-03-24T00:19:57.119Z,1.70
2023-03-24T00:22:28.341Z,1.60
2023-03-24T00:25:04.157Z,1.70
2023-03-24T00:27:43.403Z,1.33
2023-03-24T00:30:14.460Z,1.80
2023-03-24T00:32:50.314Z,1.70
2023-03-24T00:35:21.237Z,1.90
2023-03-24T00:37:58.190Z,1.70
2023-03-24T00:40:27.924Z,1.60
2023-03-24T00:43:03.253Z,1.77
2023-03-24T00:45:34.871Z,1.70
2023-03-24T00:48:11.274Z,1.70
2023-03-24T00:50:48.178Z,1.60
2023-03-24T00:53:17.508Z,1.80
2023-03-24T00:55:54.186Z,1.80
2023-03-24T00:58:30.485Z,1.63
2023-03-24T01:01:00.502Z,2.10
2023-03-24T01:03:36.221Z,1.60
2023-03-24T01:06:07.117Z,1.90
2023-03-24T01:08:42.221Z,1.83
2023-03-24T01:11:18.071Z,1.90
2023-03-24T01:13:53.438Z,1.70
2023-03-24T01:16:25.953Z,1.83
2023-03-24T01:19:01.184Z,2.10
2023-03-24T01:21:31.996Z,1.90
2023-03-24T01:24:08.248Z,1.80
2023-03-24T01:26:37.393Z,1.97
2023-03-24T01:29:06.252Z,1.80
2023-03-24T01:31:42.508Z,1.90
2023-03-24T01:34:11.375Z,1.90
2023-03-24T01:36:48.202Z,2.07
2023-03-24T01:39:17.143Z,2.07
2023-03-24T01:41:52.209Z,2.30
2023-03-24T01:44:33.010Z,2.37
2023-03-24T01:47:09.216Z,2.27
2023-03-24T01:49:41.812Z,2.40
2023-03-24T01:52:23.225Z,2.23
2023-03-24T01:54:55.862Z,2.20
2023-03-24T01:57:36.550Z,2.10
2023-03-24T02:00:13.784Z,2.03
2023-03-24T02:05:41.863Z,2.13
2023-03-24T02:08:16.589Z,1.90
2023-03-24T02:10:53.281Z,1.90
2023-03-24T02:13:22.560Z,2.00
2023-03-24T02:16:08.273Z,2.00
2023-03-24T02:18:45.132Z,1.73
2023-03-24T02:21:47.300Z,2.03
2023-03-24T02:25:04.132Z,1.87
2023-03-24T02:28:07.423Z,1.70
2023-03-24T02:31:11.797Z,1.77
2023-03-24T02:34:23.444Z,1.73
2023-03-24T02:37:44.168Z,1.60
2023-03-24T02:40:30.304Z,2.00
2023-03-24T02:43:18.785Z,1.67
2023-03-24T02:46:02.592Z,1.80
2023-03-24T02:48:38.247Z,1.50
2023-03-24T02:51:21.554Z,1.80
2023-03-24T02:53:58.862Z,1.60
2023-03-24T02:56:42.376Z,1.60
2023-03-24T02:59:17.359Z,1.37
2023-03-24T03:02:00.568Z,1.40
2023-03-24T03:04:40.542Z,1.00
2023-03-24T03:07:19.579Z,0.97
2023-03-24T03:09:54.692Z,1.07
2023-03-24T03:12:34.299Z,1.00
2023-03-24T03:15:07.960Z,1.10
2023-03-24T03:17:48.393Z,1.20
2023-03-24T03:20:23.112Z,1.10
2023-03-24T03:23:01.590Z,1.07
2023-03-24T03:25:34.930Z,1.20
2023-03-24T03:28:13.596Z,1.20
2023-03-24T03:30:45.663Z,1.30
2023-03-24T03:33:31.304Z,1.03
2023-03-24T03:36:11.613Z,1.30
2023-03-24T03:38:50.923Z,1.03
2023-03-24T03:41:27.322Z,1.13
2023-03-24T03:43:57.745Z,1.30
2023-03-24T03:46:33.646Z,1.10
2023-03-24T03:49:02.830Z,1.30
2023-03-24T03:51:38.420Z,1.30
2023-03-24T03:54:16.364Z,1.10
2023-03-24T03:56:46.703Z,1.23
2023-03-24T03:59:35.416Z,1.53
2023-03-24T04:02:24.422Z,1.10
2023-03-24T04:05:28.066Z,1.13
2023-03-24T04:08:22.410Z,1.40
2023-03-24T04:11:31.438Z,1.30
2023-03-24T04:14:19.362Z,1.30
2023-03-24T04:17:00.543Z,1.40
2023-03-24T04:19:47.421Z,1.50
2023-03-24T04:22:33.365Z,1.63
2023-03-24T04:25:12.481Z,1.43
2023-03-24T04:27:55.675Z,1.43
2023-03-24T04:30:30.633Z,1.53
2023-03-24T04:33:11.692Z,1.60
2023-03-24T04:35:44.833Z,1.50
2023-03-24T04:38:24.428Z,1.57
2023-03-24T04:40:55.802Z,1.40
2023-03-24T04:43:35.748Z,1.70
2023-03-24T04:46:05.930Z,1.37
2023-03-24T04:48:42.424Z,1.80
2023-03-24T04:51:11.511Z,1.80
2023-03-24T04:53:46.670Z,1.87
2023-03-24T04:56:31.722Z,1.60
2023-03-24T04:59:07.355Z,1.87
2023-03-24T05:01:37.870Z,1.90
2023-03-24T05:04:15.464Z,1.80
2023-03-24T05:06:51.559Z,2.10
2023-03-24T05:09:27.396Z,2.00
2023-03-24T05:12:02.800Z,2.13
2023-03-24T05:14:31.347Z,2.33
2023-03-24T05:17:06.454Z,2.13
2023-03-24T05:19:43.672Z,2.73
2023-03-24T05:22:12.490Z,2.67
2023-03-24T05:24:48.362Z,2.43
2023-03-24T05:27:23.501Z,2.07
2023-03-24T05:29:52.123Z,2.43
2023-03-24T05:32:27.526Z,2.50
2023-03-24T05:35:04.478Z,2.20
2023-03-24T05:37:33.374Z,2.80
2023-03-24T05:40:08.740Z,2.50
2023-03-24T05:42:37.499Z,2.70
2023-03-24T05:45:07.252Z,2.77
2023-03-24T05:47:42.737Z,2.50
2023-03-24T05:50:14.218Z,2.87
2023-03-24T05:52:49.736Z,3.07
2023-03-24T05:55:19.571Z,3.10
2023-03-24T05:57:54.502Z,2.73
2023-03-24T06:00:23.484Z,3.43
2023-03-24T06:02:59.947Z,2.80
2023-03-24T06:05:36.895Z,2.77
2023-03-24T06:08:12.427Z,3.07
2023-03-24T06:10:47.779Z,2.90
2023-03-24T06:13:16.783Z,2.53
2023-03-24T06:15:54.507Z,3.33
2023-03-24T06:18:30.447Z,3.30
2023-03-24T06:21:00.657Z,3.30
2023-03-24T06:23:37.528Z,3.17
2023-03-24T06:26:18.525Z,2.90
2023-03-24T06:28:47.104Z,2.73
2023-03-24T06:31:26.609Z,2.80
2023-03-24T06:34:02.916Z,2.90
2023-03-24T06:36:34.770Z,2.63
2023-03-24T06:39:12.510Z,2.87
2023-03-24T06:41:41.140Z,3.17
2023-03-24T06:44:10.318Z,2.70
2023-03-24T06:46:45.578Z,3.10
2023-03-24T06:49:14.390Z,2.77
2023-03-24T06:51:44.541Z,2.40
2023-03-24T06:54:19.498Z,2.70
2023-03-24T06:56:48.174Z,2.53
2023-03-24T06:59:24.563Z,2.40
2023-03-24T07:01:59.578Z,2.73
2023-03-24T07:04:47.535Z,2.80
2023-03-24T07:10:03.517Z,3.07
2023-03-24T07:12:32.347Z,3.03
2023-03-24T07:15:10.812Z,2.40
2023-03-24T07:17:46.595Z,2.80
2023-03-24T07:20:16.061Z,2.70
2023-03-24T07:22:54.705Z,2.43
2023-03-24T07:25:29.831Z,3.20
2023-03-24T07:27:59.106Z,3.10
2023-03-24T07:30:52.059Z,2.70
2023-03-24T07:33:30.503Z,2.87
2023-03-24T07:35:59.846Z,2.90
2023-03-24T07:38:36.871Z,2.60
2023-03-24T07:41:05.868Z,2.77
2023-03-24T07:43:35.522Z,2.97
2023-03-24T07:46:11.048Z,2.83
2023-03-24T07:48:40.051Z,2.57
2023-03-24T07:51:08.717Z,2.93
2023-03-24T07:53:45.845Z,2.70
2023-03-24T07:56:14.298Z,2.73
2023-03-24T07:58:49.606Z,3.10
2023-03-24T08:01:24.698Z,2.73
2023-03-24T08:04:12.731Z,2.40
2023-03-24T08:06:48.882Z,2.53
2023-03-24T08:09:25.599Z,2.70
2023-03-24T08:11:54.100Z,2.70
2023-03-24T08:14:28.617Z,2.50
2023-03-24T08:16:59.187Z,2.10
2023-03-24T08:19:37.226Z,2.57
2023-03-24T08:22:09.019Z,2.60
2023-03-24T08:24:45.805Z,2.57
2023-03-24T08:27:14.520Z,2.40
2023-03-24T08:29:49.582Z,2.37
2023-03-24T08:32:24.694Z,2.53
2023-03-24T08:34:54.363Z,2.10
2023-03-24T08:37:29.659Z,2.43
2023-03-24T08:40:12.699Z,2.40
2023-03-24T08:42:48.681Z,2.53
2023-03-24T08:45:21.179Z,2.50
2023-03-24T08:47:58.100Z,2.93
2023-03-24T08:50:29.611Z,2.70
2023-03-24T08:53:06.637Z,2.50
2023-03-24T08:55:37.972Z,2.20
2023-03-24T08:58:06.410Z,2.33
2023-03-24T09:00:41.778Z,2.43
2023-03-24T09:03:13.855Z,2.20
2023-03-24T09:05:55.885Z,2.20
2023-03-24T09:08:31.620Z,1.97
2023-03-24T09:11:01.942Z,2.23
2023-03-24T09:13:36.624Z,2.00
2023-03-24T09:16:12.985Z,2.30
2023-03-24T09:18:41.663Z,2.00
2023-03-24T09:21:16.905Z,2.27
2023-03-24T09:23:51.927Z,3.27
2023-03-24T09:26:23.411Z,2.70
2023-03-24T09:28:58.714Z,2.13
2023-03-24T09:31:33.667Z,2.17
2023-03-24T09:34:04.326Z,2.33
2023-03-24T09:36:45.061Z,2.30
2023-03-24T09:39:20.173Z,2.17
2023-03-24T09:41:51.933Z,2.10
2023-03-24T09:44:33.661Z,2.13
2023-03-24T09:47:05.553Z,1.97
2023-03-24T09:49:46.744Z,2.43
2023-03-24T09:52:21.098Z,2.10
2023-03-24T09:55:00.966Z,2.20
2023-03-24T09:57:36.600Z,2.17
2023-03-24T10:00:25.033Z,2.30
2023-03-24T10:02:56.864Z,2.10
2023-03-24T10:05:45.825Z,2.07
2023-03-24T10:08:31.865Z,2.13
2023-03-24T10:11:11.708Z,2.17
2023-03-24T10:14:04.431Z,2.07
2023-03-24T10:16:54.512Z,2.07
2023-03-24T10:19:48.994Z,2.10
2023-03-24T10:22:30.755Z,2.07
2023-03-24T10:25:06.554Z,1.87
2023-03-24T10:27:50.093Z,2.20
2023-03-24T10:30:24.057Z,2.10
2023-03-24T10:33:01.741Z,2.23
2023-03-24T10:35:34.036Z,2.13
2023-03-24T10:38:15.764Z,2.27
2023-03-24T10:40:45.746Z,2.23
2023-03-24T10:43:20.745Z,2.30
2023-03-24T10:45:52.743Z,1.73
2023-03-24T10:48:48.728Z,2.17
2023-03-24T10:51:19.541Z,2.17
2023-03-24T10:53:56.791Z,2.30
2023-03-24T10:56:47.802Z,2.30
2023-03-24T10:59:27.654Z,2.30
2023-03-24T11:02:25.917Z,2.30
2023-03-24T11:05:05.681Z,2.20
2023-03-24T11:07:49.728Z,2.20
2023-03-24T11:10:21.291Z,2.27
2023-03-24T11:13:14.641Z,2.50
2023-03-24T11:16:02.211Z,2.40
2023-03-24T11:18:33.345Z,2.30
2023-03-24T11:21:11.742Z,2.27
2023-03-24T11:23:43.263Z,2.73
2023-03-24T11:26:22.780Z,2.23
2023-03-24T11:28:54.814Z,2.57
2023-03-24T11:31:37.328Z,2.63
2023-03-24T11:34:14.694Z,2.00
2023-03-24T11:36:55.094Z,1.70
2023-03-24T11:39:26.214Z,2.27
2023-03-24T11:42:13.873Z,1.77
2023-03-24T11:44:48.624Z,2.00
2023-03-24T11:47:30.864Z,2.10
2023-03-24T11:50:17.982Z,2.07
2023-03-24T11:52:58.847Z,1.73
2023-03-24T11:55:38.212Z,1.97
2023-03-24T11:58:20.788Z,1.73
2023-03-24T12:00:54.285Z,1.70
2023-03-24T12:03:49.138Z,1.57
2023-03-24T12:06:40.333Z,1.80
2023-03-24T12:09:27.779Z,2.00
2023-03-24T12:12:14.262Z,2.00
2023-03-24T12:15:01.795Z,2.00
2023-03-24T12:17:36.952Z,2.30
2023-03-24T12:20:30.801Z,2.23
2023-03-24T12:23:10.625Z,2.03
2023-03-24T12:26:01.877Z,1.80
2023-03-24T12:28:54.219Z,2.13
2023-03-24T12:32:02.148Z,2.20
2023-03-24T12:35:10.801Z,2.37
2023-03-24T12:37:50.820Z,2.03
2023-03-24T12:41:10.820Z,2.00
2023-03-24T12:43:49.676Z,2.00
2023-03-24T12:46:47.816Z,2.30
2023-03-24T12:49:42.453Z,2.17
2023-03-24T12:52:42.832Z,1.70
2023-03-24T12:55:18.294Z,1.97
2023-03-24T12:58:00.184Z,2.00
2023-03-24T13:00:32.808Z,2.53
2023-03-24T13:03:11.135Z,2.80
2023-03-24T13:06:07.243Z,2.70
2023-03-24T13:08:48.880Z,2.33
2023-03-24T13:11:32.895Z,2.60
2023-03-24T13:14:06.814Z,2.50
2023-03-24T13:16:45.194Z,2.53
2023-03-24T13:19:20.890Z,2.50
2023-03-24T13:21:57.204Z,2.30
2023-03-24T13:24:27.201Z,2.23
2023-03-24T13:27:10.866Z,2.20
2023-03-24T13:30:22.149Z,2.30
2023-03-24T13:32:53.916Z,2.10
2023-03-24T13:35:55.105Z,2.23
2023-03-24T13:38:34.069Z,2.20
2023-03-24T13:41:13.129Z,1.93
2023-03-24T13:43:50.078Z,1.70
2023-03-24T13:46:27.999Z,2.03
2023-03-24T13:48:58.474Z,1.97
2023-03-24T13:51:36.954Z,1.90
2023-03-24T13:54:08.600Z,1.30
2023-03-24T13:56:45.093Z,1.53
2023-03-24T13:59:40.197Z,1.50
2023-03-24T14:02:27.996Z,1.73
2023-03-24T14:05:22.175Z,1.50
2023-03-24T14:07:58.266Z,1.20
2023-03-24T14:10:49.998Z,1.30
2023-03-24T14:13:45.902Z,1.50
2023-03-24T14:16:45.589Z,1.20
2023-03-24T14:19:38.901Z,1.20
2023-03-24T14:22:22.797Z,1.30
2023-03-24T14:25:07.195Z,1.10
2023-03-24T14:27:44.901Z,1.10
2023-03-24T14:30:21.715Z,1.30
2023-03-24T14:33:00.072Z,1.57
2023-03-24T14:35:37.402Z,1.20
2023-03-24T14:38:26.985Z,1.27
2023-03-24T14:41:01.198Z,1.90
2023-03-24T14:43:37.984Z,1.40
2023-03-24T14:46:08.103Z,1.70
2023-03-24T14:49:05.338Z,1.30
2023-03-24T14:52:00.948Z,1.50
2023-03-24T14:54:35.964Z,1.80
2023-03-24T14:57:13.023Z,1.77
2023-03-24T14:59:48.577Z,1.50
2023-03-24T15:02:40.019Z,1.70
2023-03-24T15:05:35.282Z,1.43
2023-03-24T15:08:20.289Z,1.40
2023-03-24T15:10:52.368Z,1.40
2023-03-24T15:13:42.967Z,1.70
2023-03-24T15:16:21.297Z,1.67
2023-03-24T15:19:02.547Z,1.63
2023-03-24T15:21:34.984Z,1.70
2023-03-24T15:24:33.996Z,1.40
2023-03-24T15:27:26.374Z,1.67
2023-03-24T15:30:07.021Z,1.60
2023-03-24T15:32:39.172Z,1.53
2023-03-24T15:35:19.979Z,1.13
2023-03-24T15:37:54.121Z,1.17
2023-03-24T15:40:49.291Z,1.20
2023-03-24T15:43:22.040Z,1.20
2023-03-24T15:46:11.090Z,1.23
2023-03-24T15:48:41.406Z,1.47
2023-03-24T15:51:19.041Z,1.07
2023-03-24T15:53:53.695Z,1.23
2023-03-24T15:56:36.350Z,1.07
2023-03-24T15:59:15.640Z,1.30
2023-03-24T16:01:51.164Z,1.20
2023-03-24T16:04:21.273Z,1.30
2023-03-24T16:06:58.298Z,1.13
2023-03-24T16:09:33.991Z,1.30
2023-03-24T16:12:05.826Z,1.20
2023-03-24T16:14:43.068Z,1.17
2023-03-24T16:17:11.579Z,1.47
2023-03-24T16:19:47.346Z,1.50
2023-03-24T16:22:22.008Z,1.70
2023-03-24T16:24:50.746Z,1.20
2023-03-24T16:27:27.111Z,1.60
2023-03-24T16:29:55.867Z,1.40
2023-03-24T16:32:24.511Z,1.50
2023-03-24T16:37:56.354Z,1.93
2023-03-24T16:40:37.203Z,1.80
2023-03-24T16:43:16.085Z,1.67
2023-03-24T16:45:45.133Z,1.90
2023-03-24T16:48:20.128Z,2.17
2023-03-24T16:50:58.069Z,1.90
2023-03-24T16:53:26.756Z,2.10
2023-03-24T16:56:02.042Z,2.40
2023-03-24T16:58:39.355Z,2.33
2023-03-24T17:01:24.105Z,2.43
2023-03-24T17:04:01.086Z,2.20
2023-03-24T17:06:38.342Z,2.00
2023-03-24T17:09:14.673Z,2.37
2023-03-24T17:11:52.359Z,2.23
2023-03-24T17:14:22.821Z,2.40
2023-03-24T17:16:59.404Z,2.20
2023-03-24T17:19:28.302Z,2.00
2023-03-24T17:22:09.393Z,2.00
2023-03-24T17:24:48.134Z,1.77
2023-03-24T17:27:19.030Z,2.00
2023-03-24T17:29:56.124Z,1.90
2023-03-24T17:32:38.469Z,1.70
2023-03-24T17:35:09.444Z,1.63
2023-03-24T17:37:44.077Z,1.90
2023-03-24T17:40:13.934Z,2.83
2023-03-24T17:42:50.355Z,2.07
2023-03-24T17:45:21.313Z,2.10
2023-03-24T17:47:56.167Z,2.63
2023-03-24T17:50:32.202Z,6.63
2023-03-24T17:53:03.166Z,2.27
2023-03-24T17:55:38.120Z,10.57
2023-03-24T17:58:13.515Z,4.07
2023-03-24T18:00:43.468Z,4.47
2023-03-24T18:03:19.077Z,3.07
2023-03-24T18:05:54.472Z,1.50
2023-03-24T18:08:23.089Z,1.43
2023-03-24T18:10:58.167Z,1.20
2023-03-24T18:13:35.352Z,1.80
2023-03-24T18:16:19.892Z,1.60
2023-03-24T18:18:57.149Z,32.30
2023-03-24T18:21:26.782Z,20.30
2023-03-24T18:24:03.414Z,16.53
2023-03-24T18:26:33.632Z,9.67
2023-03-24T18:29:01.949Z,5.87
2023-03-24T18:31:39.485Z,3.80
2023-03-24T18:34:08.095Z,2.80
2023-03-24T18:36:43.184Z,2.37
2023-03-24T18:39:19.183Z,1.80
2023-03-24T18:41:48.213Z,2.07
2023-03-24T18:44:24.177Z,2.50
2023-03-24T18:46:55.510Z,2.03
2023-03-24T18:49:31.204Z,2.83
2023-03-24T18:51:59.694Z,1.80
2023-03-24T18:54:35.169Z,1.63
2023-03-24T18:57:03.701Z,2.30
2023-03-24T18:59:39.514Z,1.40
2023-03-24T19:02:18.236Z,1.50
2023-03-24T19:04:48.553Z,1.47
2023-03-24T19:07:33.243Z,1.27
2023-03-24T19:10:08.591Z,1.33
2023-03-24T19:12:37.531Z,1.60
2023-03-24T19:15:13.376Z,1.43
2023-03-24T19:17:50.260Z,1.87
2023-03-24T19:20:18.860Z,1.43
2023-03-24T19:22:54.231Z,1.90
2023-03-24T19:25:23.692Z,2.10
2023-03-24T19:27:52.147Z,1.87
2023-03-24T19:30:27.499Z,2.57
2023-03-24T19:32:58.191Z,1.60
2023-03-24T19:35:33.534Z,1.43
2023-03-24T19:38:08.707Z,1.33
2023-03-24T19:40:37.245Z,1.40
2023-03-24T19:43:12.356Z,1.70
2023-03-24T19:45:49.764Z,2.70
2023-03-24T19:48:20.221Z,2.33
2023-03-24T19:51:00.199Z,1.50
2023-03-24T19:53:35.317Z,1.23
2023-03-24T19:56:04.782Z,1.20
2023-03-24T19:58:40.260Z,1.10
2023-03-24T20:01:15.553Z,1.20
2023-03-24T20:03:46.140Z,0.90
2023-03-24T20:06:21.310Z,1.37
2023-03-24T20:09:03.613Z,1.20
2023-03-24T20:11:32.280Z,1.00
2023-03-24T20:14:07.577Z,1.10
2023-03-24T20:16:43.347Z,1.37
2023-03-24T20:19:13.555Z,1.20
2023-03-24T20:21:48.289Z,1.57
2023-03-24T20:24:23.282Z,1.20
2023-03-24T20:26:52.202Z,1.30
2023-03-24T20:29:27.566Z,1.10
2023-03-24T20:31:56.665Z,1.10
2023-03-24T20:34:27.028Z,1.20
2023-03-24T20:37:02.531Z,1.10
2023-03-24T20:39:31.872Z,4.17
2023-03-24T20:42:07.336Z,4.03
2023-03-24T20:44:42.284Z,2.10
2023-03-24T20:47:11.214Z,1.60
2023-03-24T20:49:48.378Z,1.97
2023-03-24T20:52:23.583Z,3.20
2023-03-24T20:54:52.485Z,2.50
2023-03-24T20:57:27.544Z,1.30
2023-03-24T21:00:03.412Z,1.73
2023-03-24T21:02:32.480Z,1.40
2023-03-24T21:05:10.298Z,1.40
2023-03-24T21:07:52.572Z,1.80
2023-03-24T21:10:21.134Z,1.30
2023-03-24T21:12:56.612Z,1.40
2023-03-24T21:15:32.620Z,1.60
2023-03-24T21:18:01.555Z,1.50
2023-03-24T21:20:38.551Z,1.33
2023-03-24T21:23:16.329Z,1.67
2023-03-24T21:25:45.066Z,1.80
2023-03-24T21:28:20.588Z,1.80
2023-03-24T21:30:49.286Z,2.00
2023-03-24T21:33:24.629Z,2.10
2023-03-24T21:36:03.616Z,2.10
2023-03-24T21:38:31.885Z,1.83
2023-03-24T21:41:07.643Z,2.47
2023-03-24T21:43:42.301Z,2.10
2023-03-24T21:46:15.298Z,1.80
2023-03-24T21:48:56.647Z,1.90
2023-03-24T21:51:37.665Z,1.90
2023-03-24T21:54:08.922Z,4.07
2023-03-24T21:56:44.686Z,3.07
2023-03-24T21:59:13.614Z,1.90
2023-03-24T22:01:42.274Z,2.60
2023-03-24T22:04:17.621Z,2.97
2023-03-24T22:07:06.580Z,3.77
2023-03-24T22:09:42.660Z,4.07
2023-03-24T22:12:17.587Z,2.60
2023-03-24T22:14:46.753Z,2.50
2023-03-24T22:17:22.382Z,1.87
2023-03-24T22:19:57.353Z,2.03
2023-03-24T22:22:27.514Z,2.10
2023-03-24T22:25:02.405Z,1.83
2023-03-24T22:27:40.652Z,1.90
2023-03-24T22:30:11.948Z,1.70
2023-03-24T22:32:47.449Z,1.90
2023-03-24T22:35:23.628Z,1.77
2023-03-24T22:37:53.603Z,1.83
2023-03-24T22:40:28.639Z,1.70
2023-03-24T22:43:03.718Z,1.80
2023-03-24T22:45:32.371Z,1.47
2023-03-24T22:48:07.336Z,1.70
2023-03-24T22:50:42.429Z,1.80
2023-03-24T22:53:12.491Z,1.60
2023-03-24T22:55:48.666Z,1.80
2023-03-24T22:58:17.633Z,1.80
2023-03-24T23:00:48.502Z,1.70
2023-03-24T23:03:24.698Z,2.00
2023-03-24T23:06:09.264Z,1.60
2023-03-24T23:08:46.377Z,1.70
2023-03-24T23:11:21.674Z,2.03
2023-03-24T23:13:50.446Z,2.00
2023-03-24T23:16:26.867Z,2.17
2023-03-24T23:19:01.404Z,2.00
2023-03-24T23:21:30.428Z,2.00
2023-03-24T23:24:07.405Z,1.87
2023-03-24T23:26:36.863Z,2.03
2023-03-24T23:29:12.684Z,1.97
2023-03-24T23:31:47.813Z,2.13
2023-03-24T23:34:17.299Z,2.10
2023-03-24T23:36:56.411Z,1.83
2023-03-24T23:39:32.680Z,1.73
2023-03-24T23:42:01.365Z,1.80
2023-03-24T23:44:36.414Z,1.70
2023-03-24T23:47:11.777Z,1.77
2023-03-24T23:49:42.616Z,1.80
2023-03-24T23:52:17.464Z,1.90
2023-03-24T23:54:54.424Z,1.77
2023-03-24T23:57:22.887Z,1.50
2023-03-24T23:59:59.807Z,1.40
